Time;durP1;ratioP1;P1;durP2;ratioP2;P2;SDS_P1;SDS_P2;PMS_P1;PMS_P2;Temp;Humidity;BMP_temperature;BMP_pressure;BME280_temperature;BME280_humidity;BME280_pressure;Samples;Min_cycle;Max_cycle;Signal;HPM_P1;HPM_P2
2022/06/12 00:01:04;;;;;;;11.10;2.70;;;15.60;99.90;;;;;;5028734;28;21087;-48
2022/06/12 00:03:32;;;;;;;2.70;2.50;;;15.60;99.90;;;;;;5034214;28;20857;-48
2022/06/12 00:06:00;;;;;;;10.83;2.43;;;15.50;99.90;;;;;;5032815;28;20496;-49
2022/06/12 00:08:30;;;;;;;4.67;2.57;;;15.50;99.90;;;;;;5027856;28;21021;-49
2022/06/12 00:10:59;;;;;;;4.77;2.43;;;15.40;99.90;;;;;;5028076;28;20485;-49
2022/06/12 00:13:28;;;;;;;3.47;2.50;;;15.40;99.90;;;;;;5030476;28;20466;-49
2022/06/12 00:15:56;;;;;;;8.43;2.83;;;15.30;99.90;;;;;;5027621;28;20605;-50
2022/06/12 00:18:23;;;;;;;3.70;2.97;;;15.30;99.90;;;;;;5029388;28;20491;-50
2022/06/12 00:21:10;;;;;;;3.13;2.90;;;15.40;99.90;;;;;;5033020;28;20966;-49
2022/06/12 00:23:39;;;;;;;3.20;2.60;;;15.30;99.90;;;;;;5032884;28;20557;-50
2022/06/12 00:26:06;;;;;;;5.57;3.20;;;15.30;99.90;;;;;;5031369;28;20483;-49
2022/06/12 00:28:34;;;;;;;9.53;2.63;;;15.30;99.90;;;;;;5025650;28;20486;-50
2022/06/12 00:31:00;;;;;;;2.73;2.40;;;15.20;99.90;;;;;;5030982;28;20482;-50
2022/06/12 00:33:28;;;;;;;4.80;2.67;;;15.20;99.90;;;;;;5030095;28;21043;-50
2022/06/12 00:35:54;;;;;;;3.47;3.23;;;15.20;99.90;;;;;;5032628;28;20504;-50
2022/06/12 00:38:21;;;;;;;4.03;3.20;;;15.10;99.90;;;;;;5026768;28;20483;-50
2022/06/12 00:40:49;;;;;;;3.50;3.20;;;15.10;99.90;;;;;;5030106;28;20999;-50
2022/06/12 00:43:16;;;;;;;3.50;3.17;;;15.00;99.90;;;;;;5030768;28;20458;-50
2022/06/12 00:45:47;;;;;;;5.03;3.10;;;15.10;99.90;;;;;;5030204;28;20869;-49
2022/06/12 00:48:18;;;;;;;4.93;3.27;;;15.10;99.90;;;;;;5029027;28;20495;-50
2022/06/12 00:50:52;;;;;;;3.23;3.00;;;15.10;99.90;;;;;;5033655;28;20504;-50
2022/06/12 00:53:22;;;;;;;3.27;3.00;;;15.00;99.90;;;;;;5026890;28;20512;-50
2022/06/12 00:55:59;;;;;;;3.83;3.30;;;15.00;99.90;;;;;;5030628;28;20458;-50
2022/06/12 00:58:29;;;;;;;3.57;2.97;;;15.00;99.90;;;;;;5030866;28;20462;-49
2022/06/12 01:00:55;;;;;;;2.90;2.70;;;15.00;99.90;;;;;;5028357;28;20980;-49
2022/06/12 01:03:25;;;;;;;2.30;2.20;;;14.90;99.90;;;;;;5029014;28;20513;-49
2022/06/12 01:08:36;;;;;;;3.77;2.50;;;14.80;99.90;;;;;;5028707;28;21095;-49
2022/06/12 01:11:24;;;;;;;3.73;2.97;;;14.80;99.90;;;;;;5028231;28;21016;-49
2022/06/12 01:13:51;;;;;;;6.47;3.37;;;14.80;99.90;;;;;;5024849;28;20443;-49
2022/06/12 01:16:21;;;;;;;3.87;2.93;;;14.80;99.90;;;;;;5025758;28;21595;-49
2022/06/12 01:18:52;;;;;;;3.40;3.10;;;14.80;99.90;;;;;;5029829;28;20459;-49
2022/06/12 01:21:48;;;;;;;4.00;3.70;;;14.70;99.90;;;;;;5031048;28;20950;-49
2022/06/12 01:24:38;;;;;;;3.50;3.20;;;14.70;99.90;;;;;;5030320;28;21009;-49
2022/06/12 01:27:34;;;;;;;5.23;3.73;;;14.60;99.90;;;;;;5028508;28;21000;-49
2022/06/12 01:30:09;;;;;;;3.87;3.30;;;14.60;99.90;;;;;;5025739;28;20509;-49
2022/06/12 01:32:44;;;;;;;3.73;3.33;;;14.50;99.90;;;;;;5029320;28;20535;-49
2022/06/12 01:35:19;;;;;;;8.50;3.10;;;14.50;99.90;;;;;;5029756;28;20462;-49
2022/06/12 01:37:54;;;;;;;3.30;3.00;;;14.50;99.90;;;;;;5029785;28;20505;-49
2022/06/12 01:40:30;;;;;;;4.03;3.63;;;14.50;99.90;;;;;;5029961;28;20486;-49
2022/06/12 01:43:04;;;;;;;3.20;3.00;;;14.60;99.90;;;;;;5026608;28;21236;-49
2022/06/12 01:45:44;;;;;;;4.17;3.63;;;14.50;99.90;;;;;;5029508;28;20478;-50
2022/06/12 01:48:26;;;;;;;3.63;3.40;;;14.50;99.90;;;;;;5029319;28;20474;-49
2022/06/12 01:51:03;;;;;;;6.67;3.43;;;14.50;99.90;;;;;;5029211;28;20487;-49
2022/06/12 01:53:37;;;;;;;5.37;3.50;;;14.50;99.90;;;;;;5030523;28;20505;-49
2022/06/12 01:56:14;;;;;;;5.77;3.83;;;14.50;99.90;;;;;;5029850;28;20516;-49
2022/06/12 01:58:46;;;;;;;6.23;4.10;;;14.50;99.90;;;;;;5025849;28;21012;-50
2022/06/12 02:01:21;;;;;;;3.53;3.33;;;14.50;99.90;;;;;;5028990;28;20462;-50
2022/06/12 02:03:53;;;;;;;2.90;2.80;;;14.50;99.90;;;;;;5031443;28;20505;-49
2022/06/12 02:06:24;;;;;;;3.57;3.30;;;14.40;99.90;;;;;;5026591;28;20479;-49
2022/06/12 02:08:58;;;;;;;4.83;4.33;;;14.40;99.90;;;;;;5030334;28;20470;-50
2022/06/12 02:14:19;;;;;;;4.13;3.70;;;14.40;99.90;;;;;;5030925;28;20453;-50
2022/06/12 02:16:53;;;;;;;3.30;3.10;;;14.40;99.90;;;;;;5025917;28;20484;-50
2022/06/12 02:19:22;;;;;;;4.23;3.90;;;14.40;99.90;;;;;;5030890;28;20521;-50
2022/06/12 02:21:54;;;;;;;10.10;4.17;;;14.30;99.90;;;;;;5029607;28;20458;-50
2022/06/12 02:24:25;;;;;;;4.00;3.70;;;14.40;99.90;;;;;;5030112;28;20463;-49
2022/06/12 02:26:59;;;;;;;5.63;4.20;;;14.30;99.90;;;;;;5028450;28;20490;-50
2022/06/12 02:29:30;;;;;;;6.80;3.57;;;14.40;99.90;;;;;;5030095;28;20902;-50
2022/06/12 02:32:01;;;;;;;6.93;4.33;;;14.30;99.90;;;;;;5029019;28;20467;-50
2022/06/12 02:34:37;;;;;;;4.63;3.83;;;14.40;99.90;;;;;;5027541;28;20465;-50
2022/06/12 02:37:09;;;;;;;4.80;3.87;;;14.30;99.90;;;;;;5028766;28;20469;-50
2022/06/12 02:39:41;;;;;;;4.60;4.20;;;14.30;99.90;;;;;;5030052;28;20491;-50
2022/06/12 02:42:12;;;;;;;8.93;3.90;;;14.30;99.90;;;;;;5029311;28;20797;-50
2022/06/12 02:44:43;;;;;;;4.63;4.23;;;14.30;99.90;;;;;;5027044;28;20953;-50
2022/06/12 02:47:15;;;;;;;4.53;4.13;;;14.40;99.90;;;;;;5021245;28;20491;-50
2022/06/12 02:49:46;;;;;;;6.63;6.03;;;14.40;99.90;;;;;;5026710;28;20547;-49
2022/06/12 02:52:19;;;;;;;7.57;4.67;;;14.50;99.90;;;;;;5029724;28;20952;-49
2022/06/12 02:54:55;;;;;;;4.40;4.00;;;14.50;99.90;;;;;;5030098;28;20455;-50
2022/06/12 02:57:31;;;;;;;9.03;4.73;;;14.50;99.90;;;;;;5029619;28;20516;-49
2022/06/12 03:00:09;;;;;;;6.00;4.27;;;14.60;99.90;;;;;;5030178;28;20470;-49
2022/06/12 03:02:42;;;;;;;5.20;4.43;;;14.60;99.90;;;;;;5014982;28;20510;-51
2022/06/12 03:05:17;;;;;;;4.73;4.30;;;14.70;99.90;;;;;;5029392;28;20455;-49
2022/06/12 03:07:44;;;;;;;7.77;4.73;;;14.80;99.90;;;;;;5022524;28;20488;-49
2022/06/12 03:10:16;;;;;;;5.50;5.00;;;14.80;99.90;;;;;;5027609;28;20902;-49
2022/06/12 03:12:43;;;;;;;8.60;4.90;;;14.80;99.90;;;;;;5028334;28;20494;-50
2022/06/12 03:15:31;;;;;;;5.27;4.77;;;15.00;99.90;;;;;;5023068;28;20500;-49
2022/06/12 03:18:00;;;;;;;5.10;4.60;;;15.00;99.90;;;;;;5028448;28;20458;-49
2022/06/12 03:20:34;;;;;;;6.30;4.53;;;15.10;99.90;;;;;;5034094;28;20483;-49
2022/06/12 03:23:08;;;;;;;7.53;5.00;;;15.10;99.90;;;;;;5033117;28;20516;-49
2022/06/12 03:25:38;;;;;;;6.07;5.50;;;15.10;99.90;;;;;;5032001;28;20466;-49
2022/06/12 03:28:12;;;;;;;6.37;4.50;;;15.20;99.90;;;;;;5022809;28;20510;-49
2022/06/12 03:30:43;;;;;;;6.43;5.37;;;15.30;96.60;;;;;;5022445;28;20476;-49
2022/06/12 03:33:16;;;;;;;8.00;5.80;;;15.30;98.90;;;;;;5029638;28;20496;-49
2022/06/12 03:35:50;;;;;;;5.90;5.10;;;15.30;99.90;;;;;;5033756;28;20462;-49
2022/06/12 03:38:24;;;;;;;5.50;5.00;;;15.40;98.10;;;;;;5025724;28;20461;-49
2022/06/12 03:40:58;;;;;;;8.67;5.27;;;15.40;99.90;;;;;;5031796;28;20999;-55
2022/06/12 03:43:33;;;;;;;8.30;5.13;;;15.50;99.90;;;;;;5030895;28;20457;-54
2022/06/12 03:46:10;;;;;;;6.20;5.57;;;15.50;99.90;;;;;;5028507;28;20513;-55
2022/06/12 03:48:42;;;;;;;6.90;5.63;;;15.60;99.90;;;;;;5031686;28;20462;-54
2022/06/12 03:51:16;;;;;;;12.20;6.30;;;15.60;93.60;;;;;;5033511;28;20462;-56
2022/06/12 03:53:47;;;;;;;7.20;6.50;;;15.70;92.40;;;;;;5031836;28;20536;-56
2022/06/12 03:59:12;;;;;;;6.37;5.77;;;15.70;87.80;;;;;;5026634;28;20542;-56
2022/06/12 04:01:41;;;;;;;11.27;5.90;;;15.80;84.50;;;;;;5024251;28;20462;-56
2022/06/12 04:04:10;;;;;;;8.57;6.50;;;15.90;82.40;;;;;;5030306;28;20881;-56
2022/06/12 04:06:37;;;;;;;6.37;5.40;;;15.90;82.50;;;;;;5031495;28;21000;-56
2022/06/12 04:09:09;;;;;;;6.43;5.83;;;15.90;81.00;;;;;;5031734;28;20462;-55
2022/06/12 04:11:39;;;;;;;8.95;5.53;;;15.90;80.30;;;;;;5016692;28;20633;-55
2022/06/12 04:14:11;;;;;;;10.97;7.20;;;16.00;79.80;;;;;;5030858;28;20462;-53
2022/06/12 04:16:41;;;;;;;9.23;6.20;;;16.10;78.30;;;;;;5027426;28;20508;-55
2022/06/12 04:19:15;;;;;;;7.53;6.00;;;16.10;78.30;;;;;;5031234;28;20508;-54
2022/06/12 04:21:49;;;;;;;11.97;6.93;;;16.20;78.00;;;;;;5027156;28;21188;-54
2022/06/12 04:24:19;;;;;;;8.30;7.20;;;16.20;71.10;;;;;;5023299;28;20469;-54
2022/06/12 04:26:51;;;;;;;9.77;6.77;;;16.30;46.50;;;;;;5026823;28;20507;-54
2022/06/12 04:29:24;;;;;;;9.50;7.57;;;16.20;39.40;;;;;;5029371;28;20560;-55
2022/06/12 04:31:54;;;;;;;10.63;8.37;;;16.10;30.60;;;;;;5030886;28;20810;-56
2022/06/12 04:34:23;;;;;;;8.10;7.30;;;16.10;21.00;;;;;;5033531;28;20449;-55
2022/06/12 04:36:53;;;;;;;10.83;8.27;;;16.00;99.90;;;;;;5029488;28;21010;-56
2022/06/12 04:39:25;;;;;;;12.13;7.97;;;16.00;99.90;;;;;;5030251;28;20514;-56
2022/06/12 04:41:52;;;;;;;13.03;7.93;;;16.00;99.90;;;;;;5030101;28;20466;-57
2022/06/12 04:44:19;;;;;;;9.83;7.60;;;15.90;99.90;;;;;;5025440;28;20547;-56
2022/06/12 04:46:48;;;;;;;16.60;8.83;;;15.90;99.90;;;;;;5029700;28;20519;-55
2022/06/12 04:49:18;;;;;;;9.20;7.53;;;15.90;99.90;;;;;;5032962;28;20466;-56
2022/06/12 04:51:47;;;;;;;13.87;9.30;;;15.80;99.90;;;;;;5028942;28;20560;-56
2022/06/12 04:54:14;;;;;;;13.50;8.87;;;15.90;99.90;;;;;;5027178;28;20864;-57
2022/06/12 04:56:41;;;;;;;15.60;10.00;;;15.90;99.90;;;;;;5030620;28;20528;-56
2022/06/12 04:59:09;;;;;;;10.27;9.20;;;15.90;99.90;;;;;;5031042;28;20459;-56
2022/06/12 05:01:35;;;;;;;13.18;8.10;;;15.90;99.90;;;;;;5027916;28;20503;-56
2022/06/12 05:04:02;;;;;;;9.53;8.63;;;15.90;99.90;;;;;;5031685;28;20227;-55
2022/06/12 05:06:30;;;;;;;10.40;8.70;;;15.90;99.90;;;;;;5031024;28;20513;-54
2022/06/12 05:08:58;;;;;;;9.60;8.63;;;15.90;99.90;;;;;;5029758;28;20490;-56
2022/06/12 05:11:25;;;;;;;17.33;8.93;;;16.00;99.90;;;;;;5029519;28;20454;-54
2022/06/12 05:13:52;;;;;;;11.27;9.20;;;16.10;99.90;;;;;;5028088;28;20864;-54
2022/06/12 05:16:32;;;;;;;9.77;8.23;;;16.10;99.90;;;;;;5031351;28;20443;-54
2022/06/12 05:19:00;;;;;;;11.90;8.97;;;16.20;99.90;;;;;;5021364;28;20463;-53
2022/06/12 05:21:28;;;;;;;12.23;9.23;;;16.20;93.20;;;;;;5027881;28;20513;-54
2022/06/12 05:23:55;;;;;;;10.63;8.90;;;16.20;86.80;;;;;;5031922;28;20473;-55
2022/06/12 05:26:23;;;;;;;10.90;9.53;;;16.30;80.80;;;;;;5031126;28;20459;-55
2022/06/12 05:28:51;;;;;;;11.60;9.77;;;16.30;74.50;;;;;;5027645;28;20944;-55
2022/06/12 05:31:17;;;;;;;11.47;9.60;;;16.40;69.40;;;;;;5029956;28;20459;-53
2022/06/12 05:33:44;;;;;;;15.60;10.20;;;16.40;64.60;;;;;;5026784;28;20464;-55
2022/06/12 05:36:13;;;;;;;10.80;9.60;;;16.40;60.00;;;;;;5025404;28;20467;-55
2022/06/12 05:38:40;;;;;;;10.97;8.70;;;16.40;53.80;;;;;;5028399;28;20537;-55
2022/06/12 05:41:07;;;;;;;12.97;10.10;;;16.40;48.50;;;;;;5023988;28;20490;-54
2022/06/12 05:43:35;;;;;;;13.77;11.10;;;16.50;41.30;;;;;;5030288;28;20443;-54
2022/06/12 05:46:02;;;;;;;11.00;10.00;;;16.50;36.80;;;;;;5028691;28;20451;-54
2022/06/12 05:48:28;;;;;;;14.70;10.90;;;16.50;27.20;;;;;;5021316;28;20546;-53
2022/06/12 05:50:58;;;;;;;10.67;9.67;;;16.40;22.80;;;;;;5030438;28;20462;-55
2022/06/12 05:53:27;;;;;;;15.90;10.23;;;16.40;91.80;;;;;;5028776;28;20516;-56
2022/06/12 05:55:55;;;;;;;13.37;11.37;;;16.50;99.90;;;;;;5026406;28;20533;-55
2022/06/12 05:58:24;;;;;;;14.63;11.07;;;16.50;99.90;;;;;;5031995;28;20865;-55
2022/06/12 06:00:52;;;;;;;16.00;11.40;;;16.60;99.90;;;;;;5028606;28;20578;-54
2022/06/12 06:03:20;;;;;;;13.13;11.30;;;16.70;99.90;;;;;;5031147;28;20921;-53
2022/06/12 06:05:48;;;;;;;13.70;11.43;;;16.70;99.90;;;;;;5026788;28;20459;-54
2022/06/12 06:08:16;;;;;;;12.90;11.60;;;16.70;99.90;;;;;;5031526;28;20482;-54
2022/06/12 06:10:44;;;;;;;13.60;11.83;;;16.70;99.90;;;;;;5030188;28;20501;-55
2022/06/12 06:13:11;;;;;;;13.07;11.53;;;16.70;99.90;;;;;;5029304;28;20466;-55
2022/06/12 06:15:39;;;;;;;13.00;11.90;;;16.80;99.90;;;;;;5027018;28;20905;-53
2022/06/12 06:18:07;;;;;;;18.10;12.83;;;16.90;99.90;;;;;;5031772;28;20501;-54
2022/06/12 06:20:37;;;;;;;13.37;12.07;;;16.90;99.90;;;;;;5026308;28;20482;-54
2022/06/12 06:23:04;;;;;;;15.33;11.93;;;16.90;99.90;;;;;;5027458;28;20459;-54
2022/06/12 06:25:32;;;;;;;13.93;12.60;;;16.90;99.90;;;;;;5025996;28;20466;-54
2022/06/12 06:27:58;;;;;;;13.43;12.27;;;16.90;99.90;;;;;;5026298;28;20988;-54
2022/06/12 06:30:27;;;;;;;15.07;13.47;;;17.00;99.90;;;;;;5029731;28;20482;-54
2022/06/12 06:32:54;;;;;;;14.60;13.20;;;17.00;99.90;;;;;;5031146;28;20446;-54
2022/06/12 06:35:23;;;;;;;18.93;12.57;;;17.00;99.90;;;;;;5030188;28;20512;-54
2022/06/12 06:37:51;;;;;;;16.73;14.33;;;17.10;99.90;;;;;;5026560;28;21010;-53
2022/06/12 06:40:19;;;;;;;15.83;14.17;;;17.10;99.90;;;;;;5022125;28;20522;-55
2022/06/12 06:42:46;;;;;;;15.70;14.10;;;17.10;99.90;;;;;;5028020;28;20567;-54
2022/06/12 06:47:59;;;;;;;24.33;15.37;;;17.20;99.90;;;;;;5028953;28;20494;-54
2022/06/12 06:50:28;;;;;;;15.40;13.80;;;17.20;99.90;;;;;;5034437;28;20461;-54
2022/06/12 06:52:54;;;;;;;16.83;15.00;;;17.30;99.90;;;;;;5034683;28;20438;-55
2022/06/12 06:55:21;;;;;;;26.03;15.00;;;17.40;99.90;;;;;;5026676;28;20964;-53
2022/06/12 06:57:49;;;;;;;16.87;15.17;;;17.40;99.90;;;;;;5031225;28;20512;-54
2022/06/12 07:00:19;;;;;;;15.57;14.27;;;17.50;99.90;;;;;;5031636;28;20471;-54
2022/06/12 07:02:46;;;;;;;16.47;14.87;;;17.60;99.90;;;;;;5033105;28;20462;-54
2022/06/12 07:05:12;;;;;;;23.20;14.30;;;17.70;99.90;;;;;;5033229;28;20455;-54
2022/06/12 07:07:41;;;;;;;19.53;12.73;;;17.80;99.90;;;;;;5033233;28;20482;-54
2022/06/12 07:10:12;;;;;;;27.73;12.10;;;17.80;99.90;;;;;;5033414;28;20844;-54
2022/06/12 07:12:38;;;;;;;10.70;9.70;;;17.90;99.90;;;;;;5030713;28;20490;-55
2022/06/12 07:15:06;;;;;;;14.70;11.00;;;17.90;99.90;;;;;;5033242;28;20443;-55
2022/06/12 07:17:33;;;;;;;12.70;10.90;;;17.90;99.90;;;;;;5025615;28;20465;-53
2022/06/12 07:19:59;;;;;;;12.60;9.90;;;18.00;99.90;;;;;;5034096;28;20536;-54
2022/06/12 07:22:26;;;;;;;11.60;9.30;;;17.90;99.90;;;;;;5029365;28;21016;-54
2022/06/12 07:24:54;;;;;;;13.47;9.70;;;17.90;99.90;;;;;;5033511;28;20508;-54
2022/06/12 07:27:21;;;;;;;14.23;9.63;;;17.90;99.90;;;;;;5030899;28;20895;-54
2022/06/12 07:29:47;;;;;;;21.13;10.50;;;17.90;99.90;;;;;;5029926;28;20482;-54
2022/06/12 07:32:15;;;;;;;10.23;8.73;;;18.10;99.90;;;;;;5028030;28;20466;-55
2022/06/12 07:34:42;;;;;;;9.47;8.57;;;18.10;99.90;;;;;;5030877;28;20523;-54
2022/06/12 07:37:08;;;;;;;11.60;9.80;;;18.20;99.90;;;;;;5033423;28;20548;-54
2022/06/12 07:39:35;;;;;;;10.93;9.43;;;18.30;99.90;;;;;;5032055;28;20894;-54
2022/06/12 07:42:04;;;;;;;10.90;8.47;;;18.30;99.90;;;;;;5030073;28;20556;-54
2022/06/12 07:44:34;;;;;;;12.13;6.40;;;18.40;99.90;;;;;;5035756;28;20555;-54
2022/06/12 07:47:00;;;;;;;6.47;5.87;;;18.50;99.90;;;;;;5031301;28;20458;-55
2022/06/12 07:49:29;;;;;;;11.87;5.87;;;18.40;99.90;;;;;;5030654;28;21085;-54
2022/06/12 07:51:58;;;;;;;8.17;5.33;;;18.50;49.90;;;;;;5030742;28;20455;-54
2022/06/12 07:54:25;;;;;;;8.53;4.73;;;18.50;81.10;;;;;;5037651;28;20465;-53
2022/06/12 07:56:52;;;;;;;7.20;4.60;;;18.60;99.90;;;;;;5031814;28;20454;-53
2022/06/12 07:59:21;;;;;;;7.57;5.33;;;18.60;99.90;;;;;;5034706;28;20523;-54
2022/06/12 08:01:48;;;;;;;6.40;5.23;;;18.70;99.90;;;;;;5026323;28;20549;-55
2022/06/12 08:04:15;;;;;;;5.83;5.23;;;18.70;99.90;;;;;;5039759;28;20511;-54
2022/06/12 08:06:42;;;;;;;9.80;5.50;;;18.70;99.90;;;;;;5030830;28;20823;-53
2022/06/12 08:09:10;;;;;;;8.93;6.00;;;18.70;99.90;;;;;;5032213;28;20561;-54
2022/06/12 08:11:38;;;;;;;8.57;6.17;;;18.80;99.90;;;;;;5028485;28;20463;-54
2022/06/12 08:14:06;;;;;;;7.13;6.43;;;18.80;99.90;;;;;;5032024;28;20461;-54
2022/06/12 08:16:35;;;;;;;9.53;6.50;;;19.00;99.90;;;;;;5025453;28;20995;-53
2022/06/12 08:19:03;;;;;;;8.33;6.00;;;19.00;99.90;;;;;;5030548;28;21003;-54
2022/06/12 08:21:29;;;;;;;8.43;6.47;;;19.10;99.90;;;;;;5027505;28;21101;-55
2022/06/12 08:23:58;;;;;;;10.37;5.97;;;19.30;99.90;;;;;;5031803;28;20541;-54
2022/06/12 08:26:28;;;;;;;7.50;5.30;;;19.40;99.90;;;;;;5028240;28;20467;-54
2022/06/12 08:28:58;;;;;;;6.40;5.10;;;19.50;99.90;;;;;;5026371;28;20545;-53
2022/06/12 08:31:27;;;;;;;7.07;4.53;;;19.60;99.90;;;;;;5031667;28;20443;-54
2022/06/12 08:33:58;;;;;;;10.60;5.47;;;19.60;90.40;;;;;;5032498;28;20980;-55
2022/06/12 08:36:26;;;;;;;10.30;4.90;;;19.80;99.90;;;;;;5032734;28;20524;-54
2022/06/12 08:38:52;;;;;;;6.93;4.57;;;19.80;99.90;;;;;;5031214;28;22194;-54
2022/06/12 08:41:23;;;;;;;5.47;4.67;;;19.90;96.10;;;;;;5029326;28;20520;-54
2022/06/12 08:43:56;;;;;;;9.97;5.00;;;19.90;95.80;;;;;;5032288;28;20528;-55
2022/06/12 08:46:30;;;;;;;5.87;3.87;;;20.00;92.30;;;;;;5030555;28;20463;-56
2022/06/12 08:49:07;;;;;;;4.97;3.37;;;20.10;99.90;;;;;;5028372;28;20485;-56
2022/06/12 08:51:41;;;;;;;5.83;3.57;;;20.20;99.90;;;;;;5017881;28;20467;-55
2022/06/12 08:54:13;;;;;;;6.27;3.73;;;20.30;99.90;;;;;;5028773;28;20546;-55
2022/06/12 08:56:48;;;;;;;9.37;3.83;;;20.50;99.90;;;;;;5030281;28;20509;-56
2022/06/12 08:59:22;;;;;;;10.40;4.50;;;20.60;99.90;;;;;;5029071;28;20474;-55
2022/06/12 09:01:49;;;;;;;7.07;4.13;;;20.70;99.90;;;;;;5029931;28;20454;-56
2022/06/12 09:04:20;;;;;;;8.57;4.17;;;20.80;99.90;;;;;;5030216;28;20459;-56
2022/06/12 09:06:50;;;;;;;13.10;4.60;;;20.80;99.90;;;;;;5029955;28;20490;-56
2022/06/12 09:09:26;;;;;;;12.50;4.30;;;20.80;99.90;;;;;;5026281;28;20533;-55
2022/06/12 09:11:59;;;;;;;5.10;3.83;;;20.90;99.90;;;;;;5024842;28;20458;-55
2022/06/12 09:14:48;;;;;;;8.50;3.50;;;20.90;99.90;;;;;;5031422;28;20491;-56
2022/06/12 09:17:23;;;;;;;4.10;2.70;;;20.90;99.90;;;;;;5031669;28;20512;-55
2022/06/12 09:20:00;;;;;;;13.97;3.30;;;21.00;99.90;;;;;;5031172;28;20527;-55
2022/06/12 09:22:35;;;;;;;14.50;2.70;;;20.90;40.10;;;;;;5030216;28;20486;-55
2022/06/12 09:25:07;;;;;;;5.60;2.83;;;21.10;60.80;;;;;;5030899;28;20454;-55
2022/06/12 09:27:43;;;;;;;6.90;3.17;;;21.30;82.30;;;;;;5022167;28;20935;-54
2022/06/12 09:30:15;;;;;;;5.93;3.50;;;21.60;82.00;;;;;;5025654;28;20481;-54
2022/06/12 09:32:54;;;;;;;14.60;3.30;;;21.70;84.90;;;;;;5026318;28;20464;-54
2022/06/12 09:35:35;;;;;;;8.33;3.17;;;21.90;80.30;;;;;;5013342;28;20879;-54
2022/06/12 09:38:21;;;;;;;9.10;2.93;;;21.90;91.10;;;;;;5023477;28;20505;-54
2022/06/12 09:41:08;;;;;;;7.27;3.30;;;21.80;99.90;;;;;;5027534;28;20466;-54
2022/06/12 09:43:40;;;;;;;6.27;2.83;;;21.70;99.90;;;;;;5025839;28;20458;-53
2022/06/12 09:46:20;;;;;;;3.60;2.37;;;21.80;99.90;;;;;;5029473;28;20459;-53
2022/06/12 09:48:58;;;;;;;13.40;3.27;;;21.80;99.90;;;;;;5022876;28;20520;-55
2022/06/12 09:51:40;;;;;;;5.87;2.03;;;21.90;99.90;;;;;;5032036;28;20573;-55
2022/06/12 09:54:37;;;;;;;7.07;2.60;;;21.90;99.90;;;;;;5029866;28;20504;-54
2022/06/12 09:57:12;;;;;;;6.40;2.60;;;22.20;99.90;;;;;;5005628;28;20833;-54
2022/06/12 09:59:45;;;;;;;8.30;3.03;;;22.30;99.90;;;;;;5024125;28;20481;-55
2022/06/12 10:02:19;;;;;;;6.30;2.60;;;22.50;99.90;;;;;;5024417;28;20459;-54
2022/06/12 10:04:52;;;;;;;9.97;3.00;;;22.70;99.90;;;;;;5028535;28;20976;-54
2022/06/12 10:07:25;;;;;;;6.87;2.40;;;22.90;99.90;;;;;;5027208;28;20463;-54
2022/06/12 10:09:57;;;;;;;14.10;3.00;;;23.00;99.90;;;;;;5029033;28;20548;-54
2022/06/12 10:12:28;;;;;;;8.00;2.47;;;23.10;99.90;;;;;;5026676;28;20463;-53
2022/06/12 10:14:57;;;;;;;14.47;2.63;;;23.10;99.90;;;;;;5027475;28;20513;-53
2022/06/12 10:17:30;;;;;;;5.67;2.20;;;23.00;99.90;;;;;;5026485;28;20482;-53
2022/06/12 10:20:02;;;;;;;12.87;4.40;;;22.80;99.90;;;;;;5027855;28;20996;-54
2022/06/12 10:22:33;;;;;;;6.27;2.90;;;22.80;99.90;;;;;;5028379;28;20466;-53
2022/06/12 10:25:01;;;;;;;13.57;5.37;;;22.70;99.90;;;;;;5030244;28;20501;-53
2022/06/12 10:27:40;;;;;;;20.70;5.77;;;22.80;99.90;;;;;;5024796;28;20463;-53
2022/06/12 10:30:08;;;;;;;7.03;2.77;;;22.80;99.90;;;;;;5029009;28;20552;-53
2022/06/12 10:32:50;;;;;;;13.27;2.53;;;22.70;99.90;;;;;;5032164;28;20461;-53
2022/06/12 10:35:20;;;;;;;18.03;5.10;;;22.80;99.90;;;;;;5026109;28;20454;-49
2022/06/12 10:37:48;;;;;;;19.13;6.27;;;22.70;99.90;;;;;;5026221;28;20458;-49
2022/06/12 10:40:18;;;;;;;7.80;2.60;;;22.80;99.90;;;;;;5027269;28;20908;-50
2022/06/12 10:42:50;;;;;;;10.00;3.20;;;22.80;99.90;;;;;;5027534;28;20466;-49
2022/06/12 10:45:22;;;;;;;5.80;2.50;;;22.80;99.90;;;;;;5030037;28;20443;-52
2022/06/12 10:47:50;;;;;;;10.23;3.13;;;22.70;99.90;;;;;;5019512;28;20491;-53
2022/06/12 10:50:22;;;;;;;5.87;2.40;;;22.80;99.90;;;;;;5030006;28;20482;-53
2022/06/12 10:52:56;;;;;;;16.70;4.87;;;22.80;99.90;;;;;;5019106;28;20458;-53
2022/06/12 10:55:39;;;;;;;3.00;2.20;;;22.80;99.90;;;;;;5026075;28;20497;-52
2022/06/12 10:58:19;;;;;;;6.03;2.60;;;22.80;99.90;;;;;;5027415;28;20519;-52
2022/06/12 11:00:48;;;;;;;6.93;3.53;;;22.80;99.90;;;;;;5026941;28;20532;-52
2022/06/12 11:03:23;;;;;;;7.13;3.17;;;22.90;99.90;;;;;;5029475;28;20808;-53
2022/06/12 11:05:59;;;;;;;18.27;4.00;;;23.00;99.90;;;;;;5026873;28;20470;-53
2022/06/12 11:09:02;;;;;;;8.13;2.87;;;23.30;99.90;;;;;;5030687;28;20509;-54
2022/06/12 11:11:37;;;;;;;4.60;2.87;;;23.50;1.40;;;;;;5026774;28;20493;-54
2022/06/12 11:14:17;;;;;;;6.30;3.03;;;23.40;1.40;;;;;;5029638;28;20458;-53
2022/06/12 11:16:57;;;;;;;33.00;11.20;;;23.50;99.90;;;;;;5020984;28;20540;-54
2022/06/12 11:19:38;;;;;;;4.63;2.17;;;23.70;99.90;;;;;;5025251;28;20565;-54
2022/06/12 11:22:14;;;;;;;10.33;3.53;;;23.90;99.90;;;;;;5023184;28;21288;-52
2022/06/12 11:24:51;;;;;;;11.20;3.70;;;24.10;99.90;;;;;;5018601;28;20497;-53
2022/06/12 11:27:34;;;;;;;8.40;3.33;;;24.10;99.90;;;;;;5021779;28;20494;-57
2022/06/12 11:30:10;;;;;;;9.33;3.70;;;24.20;99.90;;;;;;5020142;28;20579;-52
2022/06/12 11:32:49;;;;;;;8.10;2.57;;;24.20;99.90;;;;;;5020172;28;21031;-53
2022/06/12 11:35:28;;;;;;;9.03;3.97;;;24.20;99.90;;;;;;5028740;28;20482;-53
2022/06/12 11:38:11;;;;;;;9.17;2.97;;;24.20;99.90;;;;;;5029037;28;20536;-52
2022/06/12 11:40:45;;;;;;;9.57;3.60;;;24.10;99.90;;;;;;5031362;28;20482;-53
2022/06/12 11:43:19;;;;;;;4.10;2.30;;;24.00;99.90;;;;;;5027927;28;20457;-53
2022/06/12 11:46:00;;;;;;;7.33;2.70;;;24.10;99.90;;;;;;5030058;28;20456;-54
2022/06/12 11:48:59;;;;;;;8.80;3.20;;;24.20;99.90;;;;;;5032976;28;20516;-53
2022/06/12 11:51:33;;;;;;;13.13;3.03;;;24.50;99.90;;;;;;5032889;28;20536;-54
2022/06/12 11:54:24;;;;;;;9.87;2.87;;;24.30;99.90;;;;;;5033538;28;20461;-53
2022/06/12 11:57:01;;;;;;;9.20;3.10;;;24.10;99.90;;;;;;5024132;28;20450;-53
2022/06/12 11:59:38;;;;;;;9.43;2.43;;;23.90;99.90;;;;;;5032034;28;20508;-54
2022/06/12 12:02:13;;;;;;;10.03;2.50;;;23.80;99.90;;;;;;5024442;28;20463;-54
2022/06/12 12:05:07;;;;;;;4.10;2.30;;;23.60;99.90;;;;;;5025482;28;20465;-53
2022/06/12 12:07:45;;;;;;;10.70;4.33;;;23.80;99.90;;;;;;5024133;28;20459;-53
2022/06/12 12:10:28;;;;;;;7.43;3.87;;;23.90;99.90;;;;;;5025584;28;21058;-53
2022/06/12 12:13:05;;;;;;;14.87;2.83;;;24.20;99.90;;;;;;5032131;28;20621;-53
2022/06/12 12:15:39;;;;;;;13.10;5.30;;;24.50;99.90;;;;;;5032356;28;20520;-53
2022/06/12 12:18:08;;;;;;;11.13;3.27;;;24.70;99.90;;;;;;5032482;28;20462;-54
2022/06/12 12:20:39;;;;;;;11.80;2.87;;;24.90;99.90;;;;;;5025318;28;20486;-53
2022/06/12 12:23:11;;;;;;;8.97;2.50;;;25.00;99.90;;;;;;5026035;28;20498;-53
2022/06/12 12:25:42;;;;;;;4.13;2.40;;;25.10;99.90;;;;;;5024046;28;21083;-53
2022/06/12 12:28:20;;;;;;;10.30;2.80;;;25.10;99.90;;;;;;5031729;28;20454;-53
2022/06/12 12:30:48;;;;;;;19.17;8.80;;;25.10;99.90;;;;;;5026321;28;20530;-53
2022/06/12 12:33:17;;;;;;;6.80;2.30;;;25.20;99.90;;;;;;5031077;28;20854;-53
2022/06/12 12:41:20;;;;;;;9.67;3.40;;;24.90;99.90;;;;;;5025570;28;20493;-53
2022/06/12 12:43:50;;;;;;;7.07;2.40;;;25.00;99.90;;;;;;5030805;28;20510;-54
2022/06/12 12:46:18;;;;;;;5.23;2.80;;;25.20;99.90;;;;;;5025449;28;20490;-53
2022/06/12 12:48:46;;;;;;;12.77;4.10;;;25.30;99.90;;;;;;5025555;28;20513;-53
2022/06/12 12:51:26;;;;;;;7.33;2.67;;;25.40;99.90;;;;;;5026602;28;20510;-53
2022/06/12 12:53:53;;;;;;;6.40;2.60;;;25.50;99.90;;;;;;5026231;28;20924;-53
2022/06/12 12:56:30;;;;;;;9.17;2.67;;;25.50;99.90;;;;;;5026614;28;20509;-53
2022/06/12 12:59:01;;;;;;;6.80;2.37;;;25.40;99.90;;;;;;5026251;28;20455;-53
2022/06/12 13:01:34;;;;;;;7.40;2.50;;;25.40;99.90;;;;;;5028213;28;20521;-54
2022/06/12 13:04:13;;;;;;;13.03;2.60;;;25.40;99.90;;;;;;5024301;28;20459;-53
2022/06/12 13:06:52;;;;;;;7.33;2.80;;;25.10;99.90;;;;;;5022833;28;20462;-54
2022/06/12 13:09:32;;;;;;;5.13;2.67;;;24.80;99.90;;;;;;5028680;28;20482;-50
2022/06/12 13:12:15;;;;;;;4.90;2.50;;;24.80;99.90;;;;;;5038613;28;20466;-50
2022/06/12 13:15:00;;;;;;;6.40;2.40;;;24.80;99.90;;;;;;5028563;28;20467;-49
2022/06/12 13:17:39;;;;;;;5.43;2.30;;;24.70;99.90;;;;;;5022006;28;20866;-50
2022/06/12 13:20:32;;;;;;;7.57;2.67;;;24.70;99.90;;;;;;5030228;28;20482;-50
2022/06/12 13:23:20;;;;;;;7.50;3.13;;;25.00;99.90;;;;;;5026305;28;20528;-50
2022/06/12 13:25:51;;;;;;;7.90;2.43;;;25.20;99.90;;;;;;5027696;28;21011;-49